sensor_id;sensor_type;location;lat;lon;timestamp;P1;durP1;ratioP1;P2;durP2;ratioP2
5225;SDS011;2632;51.666;7.146;2022-07-15T00:00:47;7.07;;;2.40;;
5225;SDS011;2632;51.666;7.146;2022-07-15T00:03:14;4.93;;;2.83;;
5225;SDS011;2632;51.666;7.146;2022-07-15T00:05:42;5.40;;;2.80;;
5225;SDS011;2632;51.666;7.146;2022-07-15T00:08:08;5.27;;;2.47;;
5225;SDS011;2632;51.666;7.146;2022-07-15T00:10:35;3.97;;;2.33;;
5225;SDS011;2632;51.666;7.146;2022-07-15T00:13:02;5.23;;;3.27;;
5225;SDS011;2632;51.666;7.146;2022-07-15T00:15:29;5.33;;;2.50;;
5225;SDS011;2632;51.666;7.146;2022-07-15T00:17:57;9.50;;;3.10;;
5225;SDS011;2632;51.666;7.146;2022-07-15T00:20:28;6.40;;;2.60;;
5225;SDS011;2632;51.666;7.146;2022-07-15T00:23:03;5.97;;;3.30;;
5225;SDS011;2632;51.666;7.146;2022-07-15T00:25:31;4.10;;;2.90;;
5225;SDS011;2632;51.666;7.146;2022-07-15T00:27:59;4.07;;;2.60;;
5225;SDS011;2632;51.666;7.146;2022-07-15T00:30:28;5.50;;;2.70;;
5225;SDS011;2632;51.666;7.146;2022-07-15T00:32:57;5.93;;;3.00;;
5225;SDS011;2632;51.666;7.146;2022-07-15T00:35:24;5.80;;;2.70;;
5225;SDS011;2632;51.666;7.146;2022-07-15T00:37:51;9.53;;;2.57;;
5225;SDS011;2632;51.666;7.146;2022-07-15T00:40:17;12.20;;;2.90;;
5225;SDS011;2632;51.666;7.146;2022-07-15T00:42:44;4.87;;;2.43;;
5225;SDS011;2632;51.666;7.146;2022-07-15T00:45:22;8.33;;;2.50;;
5225;SDS011;2632;51.666;7.146;2022-07-15T00:47:51;5.37;;;2.63;;
5225;SDS011;2632;51.666;7.146;2022-07-15T00:50:20;5.40;;;3.20;;
5225;SDS011;2632;51.666;7.146;2022-07-15T00:52:49;14.23;;;3.97;;
5225;SDS011;2632;51.666;7.146;2022-07-15T00:55:21;4.97;;;2.50;;
5225;SDS011;2632;51.666;7.146;2022-07-15T00:57:49;4.50;;;2.87;;
5225;SDS011;2632;51.666;7.146;2022-07-15T01:00:20;7.50;;;3.30;;
5225;SDS011;2632;51.666;7.146;2022-07-15T01:02:47;8.30;;;3.30;;
5225;SDS011;2632;51.666;7.146;2022-07-15T01:05:19;5.17;;;3.13;;
5225;SDS011;2632;51.666;7.146;2022-07-15T01:07:47;10.00;;;3.60;;
5225;SDS011;2632;51.666;7.146;2022-07-15T01:10:17;5.70;;;2.97;;
5225;SDS011;2632;51.666;7.146;2022-07-15T01:12:45;6.40;;;2.90;;
5225;SDS011;2632;51.666;7.146;2022-07-15T01:15:16;7.73;;;2.93;;
5225;SDS011;2632;51.666;7.146;2022-07-15T01:17:44;6.37;;;3.50;;
5225;SDS011;2632;51.666;7.146;2022-07-15T01:20:13;5.70;;;3.10;;
5225;SDS011;2632;51.666;7.146;2022-07-15T01:22:41;4.73;;;2.60;;
5225;SDS011;2632;51.666;7.146;2022-07-15T01:25:07;6.97;;;3.10;;
5225;SDS011;2632;51.666;7.146;2022-07-15T01:27:34;6.43;;;3.17;;
5225;SDS011;2632;51.666;7.146;2022-07-15T01:30:01;4.10;;;2.93;;
5225;SDS011;2632;51.666;7.146;2022-07-15T01:32:28;7.40;;;3.60;;
5225;SDS011;2632;51.666;7.146;2022-07-15T01:34:55;8.50;;;3.20;;
5225;SDS011;2632;51.666;7.146;2022-07-15T01:37:22;7.33;;;3.30;;
5225;SDS011;2632;51.666;7.146;2022-07-15T01:39:48;8.33;;;3.40;;
5225;SDS011;2632;51.666;7.146;2022-07-15T01:42:15;6.17;;;3.83;;
5225;SDS011;2632;51.666;7.146;2022-07-15T01:44:41;4.00;;;3.43;;
5225;SDS011;2632;51.666;7.146;2022-07-15T01:47:08;5.53;;;3.00;;
5225;SDS011;2632;51.666;7.146;2022-07-15T01:49:35;8.00;;;3.50;;
5225;SDS011;2632;51.666;7.146;2022-07-15T01:52:03;6.20;;;3.40;;
5225;SDS011;2632;51.666;7.146;2022-07-15T01:54:30;6.13;;;4.03;;
5225;SDS011;2632;51.666;7.146;2022-07-15T01:56:58;5.83;;;3.17;;
5225;SDS011;2632;51.666;7.146;2022-07-15T01:59:24;8.43;;;3.87;;
5225;SDS011;2632;51.666;7.146;2022-07-15T02:01:53;8.43;;;3.67;;
5225;SDS011;2632;51.666;7.146;2022-07-15T02:04:22;5.83;;;3.70;;
5225;SDS011;2632;51.666;7.146;2022-07-15T02:06:49;15.07;;;4.73;;
5225;SDS011;2632;51.666;7.146;2022-07-15T02:09:16;11.50;;;3.63;;
5225;SDS011;2632;51.666;7.146;2022-07-15T02:11:43;6.80;;;3.23;;
5225;SDS011;2632;51.666;7.146;2022-07-15T02:14:10;7.40;;;3.70;;
5225;SDS011;2632;51.666;7.146;2022-07-15T02:16:37;8.20;;;4.17;;
5225;SDS011;2632;51.666;7.146;2022-07-15T02:19:05;6.53;;;3.70;;
5225;SDS011;2632;51.666;7.146;2022-07-15T02:21:32;5.30;;;3.20;;
5225;SDS011;2632;51.666;7.146;2022-07-15T02:23:58;13.40;;;3.93;;
5225;SDS011;2632;51.666;7.146;2022-07-15T02:26:25;9.97;;;3.60;;
5225;SDS011;2632;51.666;7.146;2022-07-15T02:28:52;11.40;;;3.87;;
5225;SDS011;2632;51.666;7.146;2022-07-15T02:35:06;9.53;;;4.17;;
5225;SDS011;2632;51.666;7.146;2022-07-15T02:37:34;10.37;;;3.97;;
5225;SDS011;2632;51.666;7.146;2022-07-15T02:40:01;11.20;;;4.57;;
5225;SDS011;2632;51.666;7.146;2022-07-15T02:42:27;14.17;;;4.63;;
5225;SDS011;2632;51.666;7.146;2022-07-15T02:44:54;6.67;;;4.10;;
5225;SDS011;2632;51.666;7.146;2022-07-15T02:47:20;12.70;;;3.87;;
5225;SDS011;2632;51.666;7.146;2022-07-15T02:49:47;8.50;;;3.47;;
5225;SDS011;2632;51.666;7.146;2022-07-15T02:52:14;9.57;;;4.07;;
5225;SDS011;2632;51.666;7.146;2022-07-15T02:54:40;9.60;;;4.30;;
5225;SDS011;2632;51.666;7.146;2022-07-15T02:57:07;10.00;;;4.27;;
5225;SDS011;2632;51.666;7.146;2022-07-15T02:59:33;9.33;;;3.73;;
5225;SDS011;2632;51.666;7.146;2022-07-15T03:02:00;7.87;;;3.90;;
5225;SDS011;2632;51.666;7.146;2022-07-15T03:04:27;8.10;;;3.63;;
5225;SDS011;2632;51.666;7.146;2022-07-15T03:06:53;9.23;;;3.70;;
5225;SDS011;2632;51.666;7.146;2022-07-15T03:09:20;7.20;;;3.73;;
5225;SDS011;2632;51.666;7.146;2022-07-15T03:11:47;10.50;;;3.87;;
5225;SDS011;2632;51.666;7.146;2022-07-15T03:14:13;8.03;;;3.23;;
5225;SDS011;2632;51.666;7.146;2022-07-15T03:16:45;10.07;;;3.90;;
5225;SDS011;2632;51.666;7.146;2022-07-15T03:19:12;8.87;;;4.00;;
5225;SDS011;2632;51.666;7.146;2022-07-15T03:21:39;9.90;;;3.90;;
5225;SDS011;2632;51.666;7.146;2022-07-15T03:24:05;4.73;;;3.33;;
5225;SDS011;2632;51.666;7.146;2022-07-15T03:26:33;8.57;;;4.40;;
5225;SDS011;2632;51.666;7.146;2022-07-15T03:29:00;6.93;;;4.23;;
5225;SDS011;2632;51.666;7.146;2022-07-15T03:31:27;6.80;;;3.80;;
5225;SDS011;2632;51.666;7.146;2022-07-15T03:33:56;11.77;;;4.47;;
5225;SDS011;2632;51.666;7.146;2022-07-15T03:36:23;10.17;;;4.63;;
5225;SDS011;2632;51.666;7.146;2022-07-15T03:38:50;12.33;;;4.43;;
5225;SDS011;2632;51.666;7.146;2022-07-15T03:41:18;8.00;;;4.20;;
5225;SDS011;2632;51.666;7.146;2022-07-15T03:43:45;14.40;;;5.37;;
5225;SDS011;2632;51.666;7.146;2022-07-15T03:46:12;7.97;;;3.57;;
5225;SDS011;2632;51.666;7.146;2022-07-15T03:48:41;10.50;;;4.00;;
5225;SDS011;2632;51.666;7.146;2022-07-15T03:51:08;5.87;;;4.30;;
5225;SDS011;2632;51.666;7.146;2022-07-15T03:53:35;10.93;;;4.40;;
5225;SDS011;2632;51.666;7.146;2022-07-15T03:56:02;10.97;;;4.57;;
5225;SDS011;2632;51.666;7.146;2022-07-15T03:58:29;10.27;;;4.43;;
5225;SDS011;2632;51.666;7.146;2022-07-15T04:00:56;10.30;;;4.60;;
5225;SDS011;2632;51.666;7.146;2022-07-15T04:03:23;12.87;;;4.73;;
5225;SDS011;2632;51.666;7.146;2022-07-15T04:05:50;7.67;;;3.87;;
5225;SDS011;2632;51.666;7.146;2022-07-15T04:08:16;7.53;;;3.70;;
5225;SDS011;2632;51.666;7.146;2022-07-15T04:10:43;31.43;;;4.90;;
5225;SDS011;2632;51.666;7.146;2022-07-15T04:13:10;7.67;;;4.00;;
5225;SDS011;2632;51.666;7.146;2022-07-15T04:15:36;10.63;;;5.10;;
5225;SDS011;2632;51.666;7.146;2022-07-15T04:18:03;13.57;;;4.50;;
5225;SDS011;2632;51.666;7.146;2022-07-15T04:20:30;11.03;;;4.80;;
5225;SDS011;2632;51.666;7.146;2022-07-15T04:22:56;18.57;;;4.40;;
5225;SDS011;2632;51.666;7.146;2022-07-15T04:25:23;12.00;;;4.47;;
5225;SDS011;2632;51.666;7.146;2022-07-15T04:27:49;9.80;;;4.47;;
5225;SDS011;2632;51.666;7.146;2022-07-15T04:30:16;7.30;;;4.80;;
5225;SDS011;2632;51.666;7.146;2022-07-15T04:32:43;14.20;;;4.40;;
5225;SDS011;2632;51.666;7.146;2022-07-15T04:35:09;9.17;;;5.30;;
5225;SDS011;2632;51.666;7.146;2022-07-15T04:37:36;9.10;;;4.70;;
5225;SDS011;2632;51.666;7.146;2022-07-15T04:40:03;7.07;;;5.00;;
5225;SDS011;2632;51.666;7.146;2022-07-15T04:42:33;10.00;;;4.73;;
5225;SDS011;2632;51.666;7.146;2022-07-15T04:44:59;10.17;;;5.50;;
5225;SDS011;2632;51.666;7.146;2022-07-15T04:47:26;10.60;;;5.00;;
5225;SDS011;2632;51.666;7.146;2022-07-15T04:49:53;16.90;;;5.50;;
5225;SDS011;2632;51.666;7.146;2022-07-15T04:52:44;11.93;;;5.00;;
5225;SDS011;2632;51.666;7.146;2022-07-15T04:55:12;11.83;;;5.40;;
5225;SDS011;2632;51.666;7.146;2022-07-15T04:57:39;9.13;;;4.97;;
5225;SDS011;2632;51.666;7.146;2022-07-15T05:00:07;12.97;;;5.30;;
5225;SDS011;2632;51.666;7.146;2022-07-15T05:02:35;15.13;;;6.00;;
5225;SDS011;2632;51.666;7.146;2022-07-15T05:05:02;12.33;;;5.43;;
5225;SDS011;2632;51.666;7.146;2022-07-15T05:07:29;8.27;;;4.83;;
5225;SDS011;2632;51.666;7.146;2022-07-15T05:09:55;12.93;;;5.80;;
5225;SDS011;2632;51.666;7.146;2022-07-15T05:12:22;9.80;;;5.20;;
5225;SDS011;2632;51.666;7.146;2022-07-15T05:14:49;10.43;;;4.90;;
5225;SDS011;2632;51.666;7.146;2022-07-15T05:17:15;10.43;;;5.17;;
5225;SDS011;2632;51.666;7.146;2022-07-15T05:19:42;11.83;;;5.57;;
5225;SDS011;2632;51.666;7.146;2022-07-15T05:22:09;9.73;;;5.03;;
5225;SDS011;2632;51.666;7.146;2022-07-15T05:24:35;17.60;;;5.40;;
5225;SDS011;2632;51.666;7.146;2022-07-15T05:27:02;12.80;;;5.23;;
5225;SDS011;2632;51.666;7.146;2022-07-15T05:29:29;16.03;;;5.40;;
5225;SDS011;2632;51.666;7.146;2022-07-15T05:31:56;12.17;;;5.67;;
5225;SDS011;2632;51.666;7.146;2022-07-15T05:34:22;7.97;;;5.10;;
5225;SDS011;2632;51.666;7.146;2022-07-15T05:36:49;13.10;;;3.93;;
5225;SDS011;2632;51.666;7.146;2022-07-15T05:39:16;10.93;;;5.43;;
5225;SDS011;2632;51.666;7.146;2022-07-15T05:41:42;13.47;;;6.17;;
5225;SDS011;2632;51.666;7.146;2022-07-15T05:44:13;12.10;;;5.60;;
5225;SDS011;2632;51.666;7.146;2022-07-15T05:46:40;14.77;;;5.97;;
5225;SDS011;2632;51.666;7.146;2022-07-15T05:49:07;15.30;;;6.00;;
5225;SDS011;2632;51.666;7.146;2022-07-15T05:51:34;11.50;;;5.10;;
5225;SDS011;2632;51.666;7.146;2022-07-15T05:54:01;15.07;;;5.40;;
5225;SDS011;2632;51.666;7.146;2022-07-15T05:56:27;16.50;;;5.47;;
5225;SDS011;2632;51.666;7.146;2022-07-15T05:58:54;13.80;;;5.33;;
5225;SDS011;2632;51.666;7.146;2022-07-15T06:01:20;20.00;;;5.00;;
5225;SDS011;2632;51.666;7.146;2022-07-15T06:03:49;11.93;;;5.07;;
5225;SDS011;2632;51.666;7.146;2022-07-15T06:06:17;6.10;;;4.40;;
5225;SDS011;2632;51.666;7.146;2022-07-15T06:08:44;11.77;;;4.87;;
5225;SDS011;2632;51.666;7.146;2022-07-15T06:11:10;8.90;;;4.90;;
5225;SDS011;2632;51.666;7.146;2022-07-15T06:13:38;7.93;;;3.97;;
5225;SDS011;2632;51.666;7.146;2022-07-15T06:16:05;9.30;;;4.50;;
5225;SDS011;2632;51.666;7.146;2022-07-15T06:18:33;10.57;;;4.80;;
5225;SDS011;2632;51.666;7.146;2022-07-15T06:20:59;7.03;;;4.10;;
5225;SDS011;2632;51.666;7.146;2022-07-15T06:23:27;10.20;;;3.73;;
5225;SDS011;2632;51.666;7.146;2022-07-15T06:25:54;9.80;;;4.50;;
5225;SDS011;2632;51.666;7.146;2022-07-15T06:28:22;16.43;;;4.70;;
5225;SDS011;2632;51.666;7.146;2022-07-15T06:30:48;14.57;;;4.90;;
5225;SDS011;2632;51.666;7.146;2022-07-15T06:33:15;8.20;;;4.47;;
5225;SDS011;2632;51.666;7.146;2022-07-15T06:35:42;12.33;;;4.40;;
5225;SDS011;2632;51.666;7.146;2022-07-15T06:38:10;9.03;;;4.30;;
5225;SDS011;2632;51.666;7.146;2022-07-15T06:40:37;13.03;;;3.83;;
5225;SDS011;2632;51.666;7.146;2022-07-15T06:43:04;12.30;;;3.90;;
5225;SDS011;2632;51.666;7.146;2022-07-15T06:45:31;7.50;;;3.20;;
5225;SDS011;2632;51.666;7.146;2022-07-15T06:47:57;7.30;;;2.60;;
5225;SDS011;2632;51.666;7.146;2022-07-15T06:50:24;6.73;;;3.30;;
5225;SDS011;2632;51.666;7.146;2022-07-15T06:52:51;12.73;;;3.20;;
5225;SDS011;2632;51.666;7.146;2022-07-15T06:55:17;5.90;;;2.10;;
5225;SDS011;2632;51.666;7.146;2022-07-15T06:57:44;8.80;;;2.40;;
5225;SDS011;2632;51.666;7.146;2022-07-15T07:00:11;16.23;;;3.30;;
5225;SDS011;2632;51.666;7.146;2022-07-15T07:02:39;7.37;;;2.80;;
5225;SDS011;2632;51.666;7.146;2022-07-15T07:05:13;10.40;;;2.67;;
5225;SDS011;2632;51.666;7.146;2022-07-15T07:07:40;14.90;;;2.80;;
5225;SDS011;2632;51.666;7.146;2022-07-15T07:10:06;6.57;;;2.37;;
5225;SDS011;2632;51.666;7.146;2022-07-15T07:12:33;5.23;;;2.10;;
5225;SDS011;2632;51.666;7.146;2022-07-15T07:15:00;7.57;;;1.60;;
5225;SDS011;2632;51.666;7.146;2022-07-15T07:17:28;5.40;;;1.90;;
5225;SDS011;2632;51.666;7.146;2022-07-15T07:19:55;5.87;;;1.77;;
5225;SDS011;2632;51.666;7.146;2022-07-15T07:22:22;8.20;;;1.70;;
5225;SDS011;2632;51.666;7.146;2022-07-15T07:24:48;10.17;;;2.90;;
5225;SDS011;2632;51.666;7.146;2022-07-15T07:27:15;6.60;;;1.87;;
5225;SDS011;2632;51.666;7.146;2022-07-15T07:29:42;7.20;;;1.60;;
5225;SDS011;2632;51.666;7.146;2022-07-15T07:32:08;6.43;;;1.70;;
5225;SDS011;2632;51.666;7.146;2022-07-15T07:34:35;5.70;;;1.50;;
5225;SDS011;2632;51.666;7.146;2022-07-15T07:37:01;5.70;;;1.70;;
5225;SDS011;2632;51.666;7.146;2022-07-15T07:39:28;4.67;;;1.70;;
5225;SDS011;2632;51.666;7.146;2022-07-15T07:41:55;7.20;;;2.07;;
5225;SDS011;2632;51.666;7.146;2022-07-15T07:44:21;7.50;;;1.67;;
5225;SDS011;2632;51.666;7.146;2022-07-15T07:46:48;8.00;;;1.83;;
5225;SDS011;2632;51.666;7.146;2022-07-15T07:49:15;6.40;;;1.70;;
5225;SDS011;2632;51.666;7.146;2022-07-15T07:52:01;4.70;;;1.07;;
5225;SDS011;2632;51.666;7.146;2022-07-15T07:54:28;4.97;;;1.70;;
5225;SDS011;2632;51.666;7.146;2022-07-15T07:56:55;6.57;;;1.47;;
5225;SDS011;2632;51.666;7.146;2022-07-15T07:59:22;6.23;;;1.53;;
5225;SDS011;2632;51.666;7.146;2022-07-15T08:01:48;7.23;;;1.90;;
5225;SDS011;2632;51.666;7.146;2022-07-15T08:04:16;4.07;;;1.70;;
5225;SDS011;2632;51.666;7.146;2022-07-15T08:06:42;6.60;;;1.80;;
5225;SDS011;2632;51.666;7.146;2022-07-15T08:09:09;4.40;;;1.67;;
5225;SDS011;2632;51.666;7.146;2022-07-15T08:11:35;3.07;;;1.40;;
5225;SDS011;2632;51.666;7.146;2022-07-15T08:14:02;8.80;;;1.80;;
5225;SDS011;2632;51.666;7.146;2022-07-15T08:16:29;5.47;;;1.10;;
5225;SDS011;2632;51.666;7.146;2022-07-15T08:18:55;2.33;;;1.20;;
5225;SDS011;2632;51.666;7.146;2022-07-15T08:21:22;5.27;;;1.60;;
5225;SDS011;2632;51.666;7.146;2022-07-15T08:23:49;8.10;;;1.57;;
5225;SDS011;2632;51.666;7.146;2022-07-15T08:26:16;5.07;;;1.20;;
5225;SDS011;2632;51.666;7.146;2022-07-15T08:28:49;4.90;;;1.33;;
5225;SDS011;2632;51.666;7.146;2022-07-15T08:31:30;5.17;;;1.53;;
5225;SDS011;2632;51.666;7.146;2022-07-15T08:33:57;9.60;;;1.40;;
5225;SDS011;2632;51.666;7.146;2022-07-15T08:36:24;5.23;;;1.70;;
5225;SDS011;2632;51.666;7.146;2022-07-15T08:38:50;3.87;;;1.33;;
5225;SDS011;2632;51.666;7.146;2022-07-15T08:41:17;8.13;;;2.00;;
5225;SDS011;2632;51.666;7.146;2022-07-15T08:43:45;6.20;;;1.40;;
5225;SDS011;2632;51.666;7.146;2022-07-15T08:46:12;4.23;;;1.30;;
5225;SDS011;2632;51.666;7.146;2022-07-15T08:48:41;4.10;;;1.33;;
5225;SDS011;2632;51.666;7.146;2022-07-15T08:51:16;3.70;;;1.33;;
5225;SDS011;2632;51.666;7.146;2022-07-15T08:53:48;3.33;;;1.47;;
5225;SDS011;2632;51.666;7.146;2022-07-15T08:56:18;4.93;;;1.20;;
5225;SDS011;2632;51.666;7.146;2022-07-15T08:58:46;4.27;;;1.20;;
5225;SDS011;2632;51.666;7.146;2022-07-15T09:01:25;2.70;;;0.93;;
5225;SDS011;2632;51.666;7.146;2022-07-15T09:03:52;3.87;;;1.80;;
5225;SDS011;2632;51.666;7.146;2022-07-15T09:12:00;4.47;;;1.40;;
5225;SDS011;2632;51.666;7.146;2022-07-15T09:14:39;6.13;;;1.63;;
5225;SDS011;2632;51.666;7.146;2022-07-15T09:22:22;2.50;;;1.20;;
5225;SDS011;2632;51.666;7.146;2022-07-15T09:24:50;2.57;;;1.37;;
5225;SDS011;2632;51.666;7.146;2022-07-15T09:27:27;3.93;;;1.60;;
5225;SDS011;2632;51.666;7.146;2022-07-15T09:29:54;4.27;;;1.23;;
5225;SDS011;2632;51.666;7.146;2022-07-15T09:32:40;6.77;;;1.20;;
5225;SDS011;2632;51.666;7.146;2022-07-15T09:35:27;2.20;;;1.37;;
5225;SDS011;2632;51.666;7.146;2022-07-15T09:38:12;6.47;;;1.10;;
5225;SDS011;2632;51.666;7.146;2022-07-15T09:40:46;1.10;;;0.93;;
5225;SDS011;2632;51.666;7.146;2022-07-15T09:43:14;3.60;;;1.20;;
5225;SDS011;2632;51.666;7.146;2022-07-15T09:45:41;6.00;;;1.60;;
5225;SDS011;2632;51.666;7.146;2022-07-15T09:48:08;5.93;;;1.30;;
5225;SDS011;2632;51.666;7.146;2022-07-15T09:50:36;2.53;;;0.97;;
5225;SDS011;2632;51.666;7.146;2022-07-15T09:53:03;3.80;;;1.50;;
5225;SDS011;2632;51.666;7.146;2022-07-15T09:55:36;1.63;;;0.90;;
5225;SDS011;2632;51.666;7.146;2022-07-15T09:58:03;3.03;;;1.13;;
5225;SDS011;2632;51.666;7.146;2022-07-15T10:00:32;3.33;;;1.10;;
5225;SDS011;2632;51.666;7.146;2022-07-15T10:02:58;4.33;;;1.47;;
5225;SDS011;2632;51.666;7.146;2022-07-15T10:05:25;6.67;;;1.13;;
5225;SDS011;2632;51.666;7.146;2022-07-15T10:07:53;2.63;;;0.80;;
5225;SDS011;2632;51.666;7.146;2022-07-15T10:10:22;2.93;;;0.90;;
5225;SDS011;2632;51.666;7.146;2022-07-15T10:17:58;2.50;;;1.03;;
5225;SDS011;2632;51.666;7.146;2022-07-15T10:23:48;4.07;;;1.00;;
5225;SDS011;2632;51.666;7.146;2022-07-15T10:29:01;3.70;;;1.20;;
5225;SDS011;2632;51.666;7.146;2022-07-15T10:31:30;1.67;;;0.87;;
5225;SDS011;2632;51.666;7.146;2022-07-15T10:39:17;2.07;;;0.90;;
5225;SDS011;2632;51.666;7.146;2022-07-15T10:41:52;4.47;;;1.43;;
5225;SDS011;2632;51.666;7.146;2022-07-15T10:44:29;2.10;;;0.80;;
5225;SDS011;2632;51.666;7.146;2022-07-15T10:49:47;3.47;;;0.90;;
5225;SDS011;2632;51.666;7.146;2022-07-15T10:52:25;6.30;;;1.20;;
5225;SDS011;2632;51.666;7.146;2022-07-15T10:57:21;2.87;;;0.70;;
5225;SDS011;2632;51.666;7.146;2022-07-15T11:10:57;3.43;;;1.20;;
5225;SDS011;2632;51.666;7.146;2022-07-15T11:13:39;3.50;;;1.20;;
5225;SDS011;2632;51.666;7.146;2022-07-15T11:16:13;1.30;;;0.80;;
5225;SDS011;2632;51.666;7.146;2022-07-15T11:18:48;2.33;;;1.00;;
5225;SDS011;2632;51.666;7.146;2022-07-15T11:21:16;3.37;;;1.00;;
5225;SDS011;2632;51.666;7.146;2022-07-15T11:23:46;0.70;;;0.50;;
5225;SDS011;2632;51.666;7.146;2022-07-15T11:26:14;1.47;;;0.83;;
5225;SDS011;2632;51.666;7.146;2022-07-15T11:28:51;3.20;;;0.80;;
5225;SDS011;2632;51.666;7.146;2022-07-15T11:31:20;3.63;;;0.80;;
5225;SDS011;2632;51.666;7.146;2022-07-15T11:33:52;2.33;;;1.00;;
5225;SDS011;2632;51.666;7.146;2022-07-15T11:36:20;2.10;;;0.90;;
5225;SDS011;2632;51.666;7.146;2022-07-15T11:38:51;2.53;;;0.87;;
5225;SDS011;2632;51.666;7.146;2022-07-15T11:41:18;1.27;;;0.70;;
5225;SDS011;2632;51.666;7.146;2022-07-15T11:44:05;1.77;;;0.70;;
5225;SDS011;2632;51.666;7.146;2022-07-15T11:46:53;0.90;;;0.60;;
5225;SDS011;2632;51.666;7.146;2022-07-15T11:49:27;1.60;;;0.60;;
5225;SDS011;2632;51.666;7.146;2022-07-15T11:52:02;2.67;;;0.80;;
5225;SDS011;2632;51.666;7.146;2022-07-15T11:54:30;2.60;;;1.00;;
5225;SDS011;2632;51.666;7.146;2022-07-15T11:57:01;1.07;;;0.60;;
5225;SDS011;2632;51.666;7.146;2022-07-15T11:59:32;1.17;;;0.70;;
5225;SDS011;2632;51.666;7.146;2022-07-15T12:02:07;0.60;;;0.50;;
5225;SDS011;2632;51.666;7.146;2022-07-15T12:04:34;5.00;;;0.87;;
5225;SDS011;2632;51.666;7.146;2022-07-15T12:07:01;4.37;;;0.90;;
5225;SDS011;2632;51.666;7.146;2022-07-15T12:09:39;2.20;;;0.67;;
5225;SDS011;2632;51.666;7.146;2022-07-15T12:12:06;0.97;;;0.60;;
5225;SDS011;2632;51.666;7.146;2022-07-15T12:14:33;1.53;;;0.83;;
5225;SDS011;2632;51.666;7.146;2022-07-15T12:17:00;0.70;;;0.60;;
5225;SDS011;2632;51.666;7.146;2022-07-15T12:19:28;1.20;;;0.67;;
5225;SDS011;2632;51.666;7.146;2022-07-15T12:21:56;0.83;;;0.57;;
5225;SDS011;2632;51.666;7.146;2022-07-15T12:24:25;2.07;;;0.60;;
5225;SDS011;2632;51.666;7.146;2022-07-15T12:27:02;0.87;;;0.50;;
5225;SDS011;2632;51.666;7.146;2022-07-15T12:29:31;1.10;;;0.60;;
5225;SDS011;2632;51.666;7.146;2022-07-15T12:32:20;2.77;;;0.73;;
5225;SDS011;2632;51.666;7.146;2022-07-15T12:34:55;1.00;;;0.63;;
5225;SDS011;2632;51.666;7.146;2022-07-15T12:37:24;1.07;;;0.70;;
5225;SDS011;2632;51.666;7.146;2022-07-15T12:42:22;0.80;;;0.70;;
5225;SDS011;2632;51.666;7.146;2022-07-15T12:45:05;0.57;;;0.57;;
5225;SDS011;2632;51.666;7.146;2022-07-15T12:50:36;1.93;;;0.57;;
5225;SDS011;2632;51.666;7.146;2022-07-15T12:53:23;2.40;;;0.70;;
5225;SDS011;2632;51.666;7.146;2022-07-15T12:55:51;0.67;;;0.60;;
5225;SDS011;2632;51.666;7.146;2022-07-15T12:58:23;0.70;;;0.50;;
5225;SDS011;2632;51.666;7.146;2022-07-15T13:00:51;0.80;;;0.70;;
5225;SDS011;2632;51.666;7.146;2022-07-15T13:03:19;2.40;;;0.63;;
5225;SDS011;2632;51.666;7.146;2022-07-15T13:05:51;2.60;;;0.60;;
5225;SDS011;2632;51.666;7.146;2022-07-15T13:08:22;4.03;;;0.67;;
5225;SDS011;2632;51.666;7.146;2022-07-15T13:10:52;1.83;;;0.50;;
5225;SDS011;2632;51.666;7.146;2022-07-15T13:13:22;0.93;;;0.53;;
5225;SDS011;2632;51.666;7.146;2022-07-15T13:15:49;0.50;;;0.50;;
5225;SDS011;2632;51.666;7.146;2022-07-15T13:18:17;0.60;;;0.50;;
5225;SDS011;2632;51.666;7.146;2022-07-15T13:20:45;4.10;;;0.80;;
5225;SDS011;2632;51.666;7.146;2022-07-15T13:23:12;2.73;;;0.70;;
5225;SDS011;2632;51.666;7.146;2022-07-15T13:25:39;0.97;;;0.70;;
5225;SDS011;2632;51.666;7.146;2022-07-15T13:28:08;1.57;;;0.50;;
5225;SDS011;2632;51.666;7.146;2022-07-15T13:30:36;2.23;;;0.60;;
5225;SDS011;2632;51.666;7.146;2022-07-15T13:33:04;2.90;;;0.53;;
5225;SDS011;2632;51.666;7.146;2022-07-15T13:35:31;2.63;;;0.77;;
5225;SDS011;2632;51.666;7.146;2022-07-15T13:37:59;2.30;;;0.70;;
5225;SDS011;2632;51.666;7.146;2022-07-15T13:40:26;1.90;;;0.70;;
5225;SDS011;2632;51.666;7.146;2022-07-15T13:42:53;0.93;;;0.60;;
5225;SDS011;2632;51.666;7.146;2022-07-15T13:45:19;3.43;;;0.60;;
5225;SDS011;2632;51.666;7.146;2022-07-15T13:47:46;2.20;;;0.60;;
5225;SDS011;2632;51.666;7.146;2022-07-15T13:50:12;1.73;;;0.80;;
5225;SDS011;2632;51.666;7.146;2022-07-15T13:52:58;0.73;;;0.40;;
5225;SDS011;2632;51.666;7.146;2022-07-15T13:55:26;0.70;;;0.50;;
5225;SDS011;2632;51.666;7.146;2022-07-15T13:57:53;1.90;;;0.60;;
5225;SDS011;2632;51.666;7.146;2022-07-15T14:00:22;1.13;;;0.70;;
5225;SDS011;2632;51.666;7.146;2022-07-15T14:02:50;3.37;;;0.73;;
5225;SDS011;2632;51.666;7.146;2022-07-15T14:05:19;2.07;;;0.77;;
5225;SDS011;2632;51.666;7.146;2022-07-15T14:07:46;1.77;;;0.50;;
5225;SDS011;2632;51.666;7.146;2022-07-15T14:10:13;1.13;;;0.70;;
5225;SDS011;2632;51.666;7.146;2022-07-15T14:12:41;1.77;;;0.60;;
5225;SDS011;2632;51.666;7.146;2022-07-15T14:15:08;2.77;;;0.63;;
5225;SDS011;2632;51.666;7.146;2022-07-15T14:17:35;1.90;;;0.80;;
5225;SDS011;2632;51.666;7.146;2022-07-15T14:20:02;1.10;;;0.60;;
5225;SDS011;2632;51.666;7.146;2022-07-15T14:22:29;1.70;;;0.60;;
5225;SDS011;2632;51.666;7.146;2022-07-15T14:24:58;5.50;;;0.70;;
5225;SDS011;2632;51.666;7.146;2022-07-15T14:27:26;1.23;;;0.50;;
5225;SDS011;2632;51.666;7.146;2022-07-15T14:29:53;0.93;;;0.50;;
5225;SDS011;2632;51.666;7.146;2022-07-15T14:32:27;1.17;;;0.67;;
5225;SDS011;2632;51.666;7.146;2022-07-15T14:34:57;1.13;;;0.60;;
5225;SDS011;2632;51.666;7.146;2022-07-15T14:37:24;3.60;;;0.50;;
5225;SDS011;2632;51.666;7.146;2022-07-15T14:39:59;8.47;;;0.70;;
5225;SDS011;2632;51.666;7.146;2022-07-15T14:42:26;4.40;;;0.60;;
5225;SDS011;2632;51.666;7.146;2022-07-15T14:44:53;2.00;;;0.70;;
5225;SDS011;2632;51.666;7.146;2022-07-15T14:47:19;0.80;;;0.80;;
5225;SDS011;2632;51.666;7.146;2022-07-15T14:49:46;2.93;;;0.90;;
5225;SDS011;2632;51.666;7.146;2022-07-15T14:52:13;2.33;;;0.60;;
5225;SDS011;2632;51.666;7.146;2022-07-15T14:54:40;9.63;;;1.20;;
5225;SDS011;2632;51.666;7.146;2022-07-15T14:57:06;7.90;;;0.70;;
5225;SDS011;2632;51.666;7.146;2022-07-15T14:59:34;5.20;;;0.70;;
5225;SDS011;2632;51.666;7.146;2022-07-15T15:02:05;1.50;;;0.63;;
5225;SDS011;2632;51.666;7.146;2022-07-15T15:04:34;0.70;;;0.60;;
5225;SDS011;2632;51.666;7.146;2022-07-15T15:07:01;1.37;;;0.60;;
5225;SDS011;2632;51.666;7.146;2022-07-15T15:09:28;1.10;;;0.80;;
5225;SDS011;2632;51.666;7.146;2022-07-15T15:11:54;0.97;;;0.70;;
5225;SDS011;2632;51.666;7.146;2022-07-15T15:14:22;0.90;;;0.60;;
5225;SDS011;2632;51.666;7.146;2022-07-15T15:16:50;1.33;;;0.60;;
5225;SDS011;2632;51.666;7.146;2022-07-15T15:19:28;1.10;;;0.60;;
5225;SDS011;2632;51.666;7.146;2022-07-15T15:21:54;1.77;;;0.70;;
5225;SDS011;2632;51.666;7.146;2022-07-15T15:24:21;2.40;;;0.70;;
5225;SDS011;2632;51.666;7.146;2022-07-15T15:26:48;1.70;;;0.70;;
5225;SDS011;2632;51.666;7.146;2022-07-15T15:29:18;2.57;;;0.93;;
5225;SDS011;2632;51.666;7.146;2022-07-15T15:31:46;1.37;;;0.80;;
5225;SDS011;2632;51.666;7.146;2022-07-15T15:34:15;1.90;;;0.70;;
5225;SDS011;2632;51.666;7.146;2022-07-15T15:36:42;4.10;;;0.80;;
5225;SDS011;2632;51.666;7.146;2022-07-15T15:39:10;1.13;;;0.73;;
5225;SDS011;2632;51.666;7.146;2022-07-15T15:41:37;1.00;;;0.60;;
5225;SDS011;2632;51.666;7.146;2022-07-15T15:44:04;4.20;;;0.50;;
5225;SDS011;2632;51.666;7.146;2022-07-15T15:46:31;3.90;;;1.03;;
5225;SDS011;2632;51.666;7.146;2022-07-15T15:48:57;3.43;;;0.90;;
5225;SDS011;2632;51.666;7.146;2022-07-15T15:51:24;1.83;;;0.70;;
5225;SDS011;2632;51.666;7.146;2022-07-15T15:53:51;3.60;;;0.70;;
5225;SDS011;2632;51.666;7.146;2022-07-15T15:56:18;1.17;;;0.70;;
5225;SDS011;2632;51.666;7.146;2022-07-15T15:58:45;2.50;;;0.80;;
5225;SDS011;2632;51.666;7.146;2022-07-15T16:01:11;2.00;;;0.70;;
5225;SDS011;2632;51.666;7.146;2022-07-15T16:03:39;1.80;;;0.60;;
5225;SDS011;2632;51.666;7.146;2022-07-15T16:06:05;1.83;;;0.70;;
5225;SDS011;2632;51.666;7.146;2022-07-15T16:08:32;1.63;;;0.70;;
5225;SDS011;2632;51.666;7.146;2022-07-15T16:10:59;11.83;;;1.20;;
5225;SDS011;2632;51.666;7.146;2022-07-15T16:13:26;1.53;;;0.80;;